Time;durP1;ratioP1;P1;durP2;ratioP2;P2;SDS_P1;SDS_P2;PMS_P1;PMS_P2;Temp;Humidity;BMP_temperature;BMP_pressure;BME280_temperature;BME280_humidity;BME280_pressure;Samples;Min_cycle;Max_cycle;Signal;HPM_P1;HPM_P2
2021/05/19 00:00:52;;;;;;;6.13;3.20;;;;;;;9.59;71.67;101608.50;5134943;27;20039;-39
2021/05/19 00:03:18;;;;;;;3.58;2.83;;;;;;;9.63;71.79;101617.03;5134345;27;20027;-39
2021/05/19 00:05:43;;;;;;;4.77;3.00;;;;;;;9.61;72.62;101611.81;5133900;27;20031;-39
2021/05/19 00:08:08;;;;;;;4.23;3.07;;;;;;;9.61;71.92;101613.69;5134295;27;20489;-39
2021/05/19 00:10:35;;;;;;;6.35;3.25;;;;;;;9.59;72.28;101610.38;5134432;27;20522;-39
2021/05/19 00:13:01;;;;;;;6.65;3.42;;;;;;;9.47;72.07;101616.38;5134501;27;20034;-39
2021/05/19 00:15:26;;;;;;;6.45;3.85;;;;;;;9.41;72.43;101611.78;5135068;27;20023;-39
2021/05/19 00:17:52;;;;;;;4.80;3.42;;;;;;;9.43;72.53;101608.91;5133168;27;20486;-39
2021/05/19 00:20:18;;;;;;;4.80;3.53;;;;;;;9.42;72.22;101608.06;5134526;27;20026;-39
2021/05/19 00:22:44;;;;;;;;;;;;;;;9.59;70.93;101613.06;5134718;27;20027;-39
2021/05/19 00:25:11;;;;;;;5.65;3.70;;;;;;;9.40;73.00;101610.13;5134805;27;19919;-39
2021/05/19 00:27:36;;;;;;;5.90;3.88;;;;;;;9.38;72.17;101601.41;5133946;27;20050;-39
2021/05/19 00:30:03;;;;;;;5.28;3.45;;;;;;;9.36;72.73;101606.16;5134364;27;20027;-39
2021/05/19 00:32:29;;;;;;;3.92;3.13;;;;;;;9.38;73.09;101612.22;5133942;27;20462;-39
2021/05/19 00:34:54;;;;;;;3.77;3.30;;;;;;;9.36;72.64;101606.16;5134486;27;20026;-39
2021/05/19 00:37:19;;;;;;;4.20;3.80;;;;;;;9.29;72.99;101603.47;5134173;27;20033;-39
2021/05/19 00:39:45;;;;;;;4.03;3.33;;;;;;;9.33;73.42;101600.38;5134761;27;20015;-39
2021/05/19 00:42:12;;;;;;;4.70;3.60;;;;;;;9.27;72.74;101608.25;5132979;27;20082;-39
2021/05/19 00:44:38;;;;;;;5.03;3.88;;;;;;;9.36;73.34;101597.25;5134481;27;20054;-39
2021/05/19 00:47:04;;;;;;;5.10;3.70;;;;;;;9.35;73.09;101598.28;5134827;27;20447;-39
2021/05/19 00:49:29;;;;;;;5.10;3.63;;;;;;;9.36;73.67;101598.06;5134135;27;20372;-39
2021/05/19 00:51:55;;;;;;;4.43;3.42;;;;;;;9.34;73.02;101599.31;5134280;27;20080;-39
2021/05/19 00:54:21;;;;;;;5.33;3.63;;;;;;;9.32;73.79;101593.28;5134733;27;20461;-39
2021/05/19 00:56:46;;;;;;;6.07;4.05;;;;;;;9.33;73.18;101587.69;5134807;27;20027;-39
2021/05/19 00:59:13;;;;;;;4.65;3.38;;;;;;;9.36;73.37;101592.66;5134605;27;20031;-39
2021/05/19 01:01:39;;;;;;;4.00;3.60;;;;;;;9.26;73.61;101586.84;5133826;27;20072;-39
2021/05/19 01:04:05;;;;;;;4.65;3.65;;;;;;;9.17;73.81;101582.66;5134507;27;20459;-39
2021/05/19 01:06:40;;;;;;;3.35;3.05;;;;;;;9.22;73.43;101585.56;5134199;27;20035;-39
2021/05/19 01:11:50;;;;;;;3.83;3.17;;;;;;;9.26;73.48;101582.28;5133919;28;20066;-39
2021/05/19 01:14:15;;;;;;;5.20;3.70;;;;;;;9.19;73.49;101580.59;5133805;27;20035;-39
2021/05/19 01:16:41;;;;;;;4.20;3.60;;;;;;;9.27;73.51;101575.88;5135068;27;20024;-39
2021/05/19 01:19:06;;;;;;;4.13;3.10;;;;;;;9.17;73.51;101578.09;5137825;27;20035;-39
2021/05/19 01:21:33;;;;;;;4.60;3.90;;;;;;;9.19;73.29;101575.22;5136905;27;20027;-39
2021/05/19 01:23:59;;;;;;;3.90;3.35;;;;;;;9.14;73.92;101575.81;5137788;27;20279;-39
2021/05/19 01:26:24;;;;;;;3.70;3.17;;;;;;;9.15;74.25;101574.78;5138370;27;20035;-39
2021/05/19 01:28:49;;;;;;;3.27;2.97;;;;;;;9.16;73.30;101576.44;5137966;27;20360;-39
2021/05/19 01:31:16;;;;;;;4.80;3.13;;;;;;;9.10;74.15;101573.72;5138260;27;20609;-39
2021/05/19 01:33:41;;;;;;;;;;;;;;;9.26;72.88;101581.44;5138577;27;20061;-39
2021/05/19 01:36:07;;;;;;;3.25;2.95;;;;;;;9.05;74.52;101576.22;5138058;27;19907;-39
2021/05/19 01:38:35;;;;;;;4.13;3.33;;;;;;;9.01;74.78;101586.56;5137532;27;20436;-39
2021/05/19 01:41:02;;;;;;;5.18;3.17;;;;;;;8.94;74.75;101583.84;5137198;27;20023;-39
2021/05/19 01:43:32;;;;;;;4.45;3.15;;;;;;;8.91;74.17;101586.13;5137287;27;20043;-39
2021/05/19 01:46:00;;;;;;;3.53;3.20;;;;;;;8.90;74.73;101581.75;5137607;27;20023;-39
2021/05/19 01:48:26;;;;;;;3.67;3.38;;;;;;;8.87;74.62;101576.75;5137295;27;20080;-39
2021/05/19 01:50:51;;;;;;;4.93;3.40;;;;;;;8.95;74.94;101582.00;5137536;27;20027;-39
2021/05/19 01:53:17;;;;;;;4.90;3.30;;;;;;;8.84;74.20;101577.19;5137199;27;20031;-39
2021/05/19 01:55:42;;;;;;;3.50;2.80;;;;;;;8.81;74.61;101573.00;5137656;27;20031;-39
2021/05/19 01:58:08;;;;;;;4.00;3.20;;;;;;;8.76;74.89;101578.19;5137127;27;20114;-39
2021/05/19 02:00:33;;;;;;;3.88;3.30;;;;;;;8.77;75.49;101571.75;5137427;27;20339;-39
2021/05/19 02:03:04;;;;;;;4.03;3.27;;;;;;;8.77;75.42;101569.88;5137463;27;20023;-39
2021/05/19 02:05:32;;;;;;;4.45;3.10;;;;;;;8.70;74.70;101573.59;5137829;27;20356;-39
2021/05/19 02:07:58;;;;;;;3.70;3.13;;;;;;;8.64;75.32;101571.72;5136650;27;20501;-39
2021/05/19 02:10:24;;;;;;;3.65;3.08;;;;;;;8.66;75.02;101572.31;5136909;27;20038;-39
2021/05/19 02:12:50;;;;;;;3.75;3.20;;;;;;;8.66;75.15;101577.72;5137382;27;20035;-44
2021/05/19 02:15:16;;;;;;;3.92;3.30;;;;;;;8.56;74.59;101569.16;5136825;27;20584;-39
2021/05/19 02:17:46;;;;;;;4.05;3.30;;;;;;;8.49;75.07;101569.13;5137009;27;20061;-39
2021/05/19 02:20:16;;;;;;;3.55;3.05;;;;;;;8.47;74.08;101574.72;5137196;27;20050;-39
2021/05/19 02:22:42;;;;;;;4.68;3.42;;;;;;;8.49;76.17;101572.66;5136517;27;20127;-39
2021/05/19 02:25:10;;;;;;;4.47;3.70;;;;;;;8.47;75.34;101580.09;5136861;27;20461;-39
2021/05/19 02:27:36;;;;;;;5.25;3.80;;;;;;;8.49;76.20;101579.91;5136168;27;20091;-39
2021/05/19 02:30:09;;;;;;;4.72;3.42;;;;;;;8.47;76.04;101572.03;5135970;27;20114;-39
2021/05/19 02:32:34;;;;;;;4.65;4.20;;;;;;;8.45;75.88;101576.78;5136509;27;20031;-39
2021/05/19 02:35:00;;;;;;;4.10;3.80;;;;;;;8.61;76.31;101580.19;5135126;27;20183;-39
2021/05/19 02:37:25;;;;;;;5.15;4.30;;;;;;;8.56;76.07;101578.09;5136415;27;20072;-39
2021/05/19 02:39:51;;;;;;;4.90;4.00;;;;;;;8.64;76.75;101580.63;5136603;27;20031;-39
2021/05/19 02:42:16;;;;;;;4.57;4.17;;;;;;;8.60;77.50;101571.25;5136673;27;20047;-39
2021/05/19 02:44:41;;;;;;;6.17;4.30;;;;;;;8.68;76.85;101578.34;5135299;27;20118;-39
2021/05/19 02:47:07;;;;;;;4.57;4.17;;;;;;;8.66;76.78;101566.94;5136175;27;20027;-39
2021/05/19 02:49:32;;;;;;;4.50;4.10;;;;;;;8.74;76.92;101567.59;5137023;27;20515;-39
2021/05/19 02:51:58;;;;;;;5.05;4.55;;;;;;;8.72;76.66;101575.03;5136067;27;20029;-39
2021/05/19 02:54:24;;;;;;;7.40;4.95;;;;;;;8.74;77.36;101566.78;5136941;27;20105;-39
2021/05/19 02:56:49;;;;;;;4.90;4.40;;;;;;;8.66;76.75;101565.06;5135993;27;20023;-39
2021/05/19 02:59:14;;;;;;;5.77;4.93;;;;;;;8.79;77.14;101563.47;5135705;27;20104;-39
2021/05/19 03:01:40;;;;;;;6.37;4.97;;;;;;;8.80;77.28;101573.22;5135929;27;20279;-39
2021/05/19 03:04:06;;;;;;;5.37;4.83;;;;;;;8.73;77.30;101567.78;5136154;27;20055;-39
2021/05/19 03:06:31;;;;;;;5.80;5.20;;;;;;;8.70;77.12;101577.13;5135823;27;20031;-39
2021/05/19 03:08:56;;;;;;;5.97;4.90;;;;;;;8.63;76.48;101580.81;5135454;27;20019;-39
2021/05/19 03:11:22;;;;;;;6.70;4.77;;;;;;;8.68;77.43;101575.63;5136077;27;20042;-39
2021/05/19 03:13:48;;;;;;;5.53;4.85;;;;;;;8.65;77.80;101573.38;5135729;27;20027;-39
2021/05/19 03:16:13;;;;;;;6.37;5.07;;;;;;;8.54;77.35;101576.59;5135653;27;20413;-39
2021/05/19 03:18:39;;;;;;;6.82;4.82;;;;;;;8.59;77.30;101579.53;5135589;27;20261;-39
2021/05/19 03:21:05;;;;;;;6.90;4.97;;;;;;;8.68;78.11;101581.88;5135972;27;20458;-39
2021/05/19 03:23:31;;;;;;;5.70;5.20;;;;;;;8.60;77.95;101578.53;5134257;27;20037;-39
2021/05/19 03:25:57;;;;;;;7.70;5.80;;;;;;;8.56;77.67;101579.94;5135760;27;20028;-39
2021/05/19 03:28:23;;;;;;;9.02;6.45;;;;;;;8.52;78.95;101577.66;5135598;27;20037;-47
2021/05/19 03:30:49;;;;;;;6.63;4.78;;;;;;;8.58;78.52;101586.78;5135440;27;20386;-40
2021/05/19 03:33:14;;;;;;;6.05;5.40;;;;;;;8.56;78.79;101579.94;5135316;27;20035;-41
2021/05/19 03:35:40;;;;;;;5.10;4.60;;;;;;;8.61;78.19;101577.50;5134694;27;20043;-39
2021/05/19 03:38:05;;;;;;;6.53;5.25;;;;;;;8.65;78.52;101576.06;5135245;27;20031;-40
2021/05/19 03:40:31;;;;;;;7.28;5.07;;;;;;;8.61;78.77;101580.19;5135667;27;20111;-39
2021/05/19 03:42:56;;;;;;;6.03;5.40;;;;;;;8.58;78.32;101572.47;5135478;27;20095;-39
2021/05/19 03:45:23;;;;;;;7.97;5.10;;;;;;;8.65;78.51;101584.97;5135946;27;20027;-39
2021/05/19 03:47:51;;;;;;;7.00;5.40;;;;;;;8.63;78.27;101581.63;5134410;27;20035;-39
2021/05/19 03:50:19;;;;;;;6.55;5.22;;;;;;;8.70;78.15;101581.69;5135254;27;20031;-39
2021/05/19 03:52:45;;;;;;;5.82;5.22;;;;;;;8.71;78.04;101583.34;5135174;27;20075;-39
2021/05/19 03:55:11;;;;;;;7.65;5.35;;;;;;;8.71;78.76;101581.47;5135427;27;20027;-39
2021/05/19 03:57:37;;;;;;;6.00;5.40;;;;;;;8.68;78.41;101589.94;5134802;27;20023;-39
2021/05/19 04:00:10;;;;;;;7.43;5.28;;;;;;;8.70;77.95;101579.81;5134892;27;20440;-39
2021/05/19 04:02:35;;;;;;;7.05;5.32;;;;;;;8.67;78.76;101571.28;5134648;27;20026;-40
2021/05/19 04:05:01;;;;;;;5.50;4.73;;;;;;;8.76;78.42;101565.53;5135363;27;20031;-39
2021/05/19 04:07:26;;;;;;;6.13;5.53;;;;;;;8.72;79.18;101575.03;5134597;27;20023;-39
2021/05/19 04:09:51;;;;;;;8.87;5.60;;;;;;;8.71;79.57;101581.47;5134375;27;20035;-39
2021/05/19 04:12:17;;;;;;;7.10;5.17;;;;;;;8.67;79.24;101569.41;5134326;27;20079;-39
2021/05/19 04:14:42;;;;;;;8.20;5.43;;;;;;;8.70;79.09;101574.44;5134671;27;20030;-39
2021/05/19 04:17:07;;;;;;;5.70;4.90;;;;;;;8.68;79.71;101573.78;5134794;27;20031;-39
2021/05/19 04:19:33;;;;;;;5.83;5.17;;;;;;;8.70;79.02;101581.69;5134791;27;20505;-39
2021/05/19 04:21:59;;;;;;;8.82;5.63;;;;;;;8.74;79.67;101580.25;5134601;27;20504;-39
2021/05/19 04:24:25;;;;;;;8.90;6.07;;;;;;;8.70;79.88;101579.00;5134747;27;20378;-39
2021/05/19 04:26:50;;;;;;;6.63;5.13;;;;;;;8.74;79.08;101580.25;5134428;27;20070;-39
2021/05/19 04:29:15;;;;;;;7.93;4.97;;;;;;;8.80;79.10;101582.13;5134673;27;20074;-40
2021/05/19 04:31:41;;;;;;;9.57;5.50;;;;;;;8.82;79.01;101580.06;5134766;27;20027;-40
2021/05/19 04:34:06;;;;;;;7.50;5.80;;;;;;;8.81;79.66;101586.50;5134830;27;20027;-40
2021/05/19 04:36:31;;;;;;;6.80;5.20;;;;;;;8.75;79.82;101577.34;5134319;27;20027;-38
2021/05/19 04:38:57;;;;;;;6.60;5.07;;;;;;;8.87;79.36;101588.38;5134232;27;20051;-39
2021/05/19 04:41:22;;;;;;;10.37;5.60;;;;;;;8.85;79.75;101586.94;5133941;27;20023;-40
2021/05/19 04:43:48;;;;;;;9.90;5.70;;;;;;;8.89;80.45;101585.50;5134995;27;20023;-39
2021/05/19 04:46:13;;;;;;;9.10;5.20;;;;;;;8.95;79.67;101587.38;5134069;27;20478;-39
2021/05/19 04:48:38;;;;;;;10.83;5.77;;;;;;;8.97;80.04;101586.13;5134179;27;20038;-40
2021/05/19 04:51:04;;;;;;;8.93;4.87;;;;;;;9.00;79.20;101583.03;5135052;27;20102;-39
2021/05/19 04:53:30;;;;;;;11.13;6.55;;;;;;;8.99;79.73;101580.56;5138387;27;20023;-40
2021/05/19 04:55:56;;;;;;;12.30;5.90;;;;;;;9.03;79.64;101590.75;5138319;27;20023;-40
2021/05/19 04:58:25;;;;;;;8.63;5.72;;;;;;;9.03;80.04;101588.03;5137972;27;20026;-39
2021/05/19 05:00:51;;;;;;;8.02;6.10;;;;;;;9.08;80.53;101595.53;5139059;27;20072;-39
2021/05/19 05:03:18;;;;;;;7.97;5.88;;;;;;;9.12;80.13;101596.75;5138044;27;20019;-39
2021/05/19 05:05:43;;;;;;;14.15;6.40;;;;;;;9.12;79.59;101590.53;5138238;27;20047;-40
2021/05/19 05:08:09;;;;;;;11.40;6.07;;;;;;;9.16;79.74;101591.81;5137823;27;20062;-40
2021/05/19 05:10:34;;;;;;;9.20;6.37;;;;;;;9.24;79.65;101599.72;5137890;27;20550;-40
2021/05/19 05:12:59;;;;;;;7.23;6.10;;;;;;;9.23;79.81;101592.66;5137952;27;20039;-40
2021/05/19 05:15:25;;;;;;;11.80;6.23;;;;;;;9.31;79.36;101599.72;5138409;27;20023;-40
2021/05/19 05:17:50;;;;;;;8.77;6.27;;;;;;;9.31;79.03;101605.13;5137473;27;20527;-40
2021/05/19 05:20:16;;;;;;;8.67;5.33;;;;;;;9.43;79.83;101609.72;5138150;27;20027;-39
2021/05/19 05:22:42;;;;;;;10.95;6.80;;;;;;;9.43;79.88;101598.09;5136901;27;20039;-40
2021/05/19 05:25:08;;;;;;;12.57;6.72;;;;;;;9.46;79.52;101606.59;5137467;27;20055;-40
2021/05/19 05:27:33;;;;;;;11.00;6.93;;;;;;;9.48;79.96;101601.84;5136651;27;20058;-40
2021/05/19 05:29:58;;;;;;;11.00;6.57;;;;;;;9.51;79.68;101606.81;5137891;27;20027;-39
2021/05/19 05:32:24;;;;;;;10.67;6.27;;;;;;;9.63;79.03;101598.13;5138276;27;20447;-39
2021/05/19 05:34:49;;;;;;;9.90;6.83;;;;;;;9.57;78.86;101604.38;5137318;27;20257;-40
2021/05/19 05:37:16;;;;;;;10.70;6.63;;;;;;;9.64;78.84;101610.59;5137703;27;20020;-39
2021/05/19 05:39:41;;;;;;;10.50;6.55;;;;;;;9.68;78.39;101607.28;5138246;27;20031;-39
2021/05/19 05:42:06;;;;;;;13.90;7.60;;;;;;;9.57;78.96;101610.59;5137456;27;20476;-39
2021/05/19 05:44:33;;;;;;;9.13;6.95;;;;;;;9.55;79.88;101615.34;5137413;27;20489;-39
2021/05/19 05:46:58;;;;;;;;;;;;;;;9.73;78.45;101618.28;5137847;27;20046;-39
2021/05/19 05:49:24;;;;;;;11.50;7.00;;;;;;;9.72;79.39;101622.03;5137354;27;20351;-39
2021/05/19 05:51:49;;;;;;;11.73;7.30;;;;;;;9.76;78.99;101619.72;5137224;27;20029;-39
2021/05/19 05:54:15;;;;;;;11.15;6.90;;;;;;;9.85;78.41;101620.34;5137850;27;20023;-39
2021/05/19 05:56:41;;;;;;;11.60;7.07;;;;;;;9.86;78.45;101624.72;5136889;27;20388;-39
2021/05/19 05:59:07;;;;;;;13.95;7.78;;;;;;;9.79;78.91;101617.44;5137189;27;20030;-40
2021/05/19 06:01:33;;;;;;;12.68;7.53;;;;;;;9.84;78.37;101627.63;5137222;27;20030;-39
2021/05/19 06:03:58;;;;;;;12.10;7.60;;;;;;;9.79;79.09;101617.44;5136569;27;20351;-39
2021/05/19 06:06:24;;;;;;;13.63;8.60;;;;;;;9.86;79.82;101622.00;5137751;27;20344;-39
2021/05/19 06:08:49;;;;;;;12.33;7.27;;;;;;;9.94;78.39;101627.22;5135533;27;20031;-39
2021/05/19 06:11:14;;;;;;;12.53;8.70;;;;;;;10.06;78.88;101615.59;5137335;27;20019;-39
2021/05/19 06:13:40;;;;;;;10.77;7.47;;;;;;;10.10;79.42;101625.97;5136814;27;20076;-39
2021/05/19 06:16:05;;;;;;;12.20;8.07;;;;;;;10.27;77.85;101624.53;5137149;27;20087;-39
2021/05/19 06:18:30;;;;;;;17.40;7.60;;;;;;;10.42;77.90;101630.53;5136470;27;20037;-39
2021/05/19 06:20:56;;;;;;;12.00;7.47;;;;;;;10.55;76.96;101619.72;5135212;27;20047;-39
2021/05/19 06:23:21;;;;;;;12.67;7.20;;;;;;;10.61;76.83;101622.59;5137135;27;20095;-39
2021/05/19 06:25:47;;;;;;;13.70;7.17;;;;;;;10.74;76.25;101622.59;5136640;27;20092;-39
2021/05/19 06:28:12;;;;;;;10.33;6.87;;;;;;;10.84;76.07;101617.56;5136602;27;20066;-40
2021/05/19 06:30:37;;;;;;;15.53;7.53;;;;;;;10.94;75.58;101612.50;5137017;27;20289;-40
2021/05/19 06:33:03;;;;;;;12.80;7.50;;;;;;;11.07;75.24;101623.25;5136230;27;20035;-39
2021/05/19 06:35:29;;;;;;;14.68;7.50;;;;;;;11.24;75.34;101622.78;5136825;27;20023;-39
2021/05/19 06:37:54;;;;;;;15.30;8.03;;;;;;;11.29;75.04;101617.53;5135129;27;20027;-40
2021/05/19 06:40:20;;;;;;;11.23;8.02;;;;;;;11.42;74.24;101613.91;5136954;27;20034;-39
2021/05/19 06:42:45;;;;;;;11.90;7.30;;;;;;;11.55;73.44;101616.53;5136441;27;20050;-40
2021/05/19 06:45:11;;;;;;;12.47;6.73;;;;;;;11.67;74.52;101617.50;5136764;27;20028;-40
2021/05/19 06:47:36;;;;;;;16.42;7.45;;;;;;;11.78;74.24;101624.94;5136647;27;20352;-39
2021/05/19 06:50:03;;;;;;;17.87;6.93;;;;;;;11.93;73.75;101624.63;5136265;27;20035;-40
2021/05/19 06:52:29;;;;;;;15.82;7.63;;;;;;;11.85;72.10;101623.00;5135835;27;20066;-39
2021/05/19 06:54:54;;;;;;;14.50;7.72;;;;;;;11.83;73.45;101624.31;5135858;27;20023;-40
2021/05/19 06:57:20;;;;;;;12.83;6.90;;;;;;;11.78;73.71;101626.81;5136128;27;20497;-40
2021/05/19 06:59:45;;;;;;;13.40;8.47;;;;;;;11.81;73.92;101629.09;5136513;27;20030;-39
2021/05/19 07:02:10;;;;;;;11.80;8.77;;;;;;;11.83;73.19;101627.00;5135880;27;20506;-40
2021/05/19 07:04:36;;;;;;;14.07;10.23;;;;;;;11.79;72.73;101628.47;5135071;27;20047;-39
2021/05/19 07:07:01;;;;;;;13.17;10.00;;;;;;;11.78;73.34;101634.94;5135821;27;20123;-40
2021/05/19 07:09:26;;;;;;;14.57;10.07;;;;;;;11.82;73.25;101631.59;5136371;27;20047;-40
2021/05/19 07:11:53;;;;;;;16.27;9.33;;;;;;;11.95;73.48;101624.41;5134438;27;20035;-39
2021/05/19 07:14:19;;;;;;;15.93;10.15;;;;;;;12.02;73.94;101634.16;5136226;27;20367;-40
2021/05/19 07:16:53;;;;;;;22.95;12.13;;;;;;;12.07;72.77;101628.91;5136148;27;20097;-40
2021/05/19 07:19:19;;;;;;;19.17;10.77;;;;;;;12.33;74.08;101633.22;5135672;27;20034;-40
2021/05/19 07:21:45;;;;;;;;;;;;;;;12.56;72.66;101629.88;5136056;27;20447;-40
2021/05/19 07:24:13;;;;;;;15.73;10.50;;;;;;;12.43;71.27;101624.59;5135445;27;19960;-40
2021/05/19 07:26:41;;;;;;;22.05;11.50;;;;;;;12.40;72.13;101630.47;5135927;27;20031;-39
2021/05/19 07:29:06;;;;;;;16.35;11.07;;;;;;;12.47;71.11;101625.81;5135667;27;20045;-40
2021/05/19 07:31:33;;;;;;;13.53;9.47;;;;;;;12.66;70.94;101629.38;5135356;27;20027;-40
2021/05/19 07:33:58;;;;;;;;;;;;;;;12.94;70.54;101634.28;5135700;27;20027;-40
2021/05/19 07:36:23;;;;;;;11.38;8.60;;;;;;;12.91;69.74;101632.00;5135074;27;20373;-40
2021/05/19 07:38:49;;;;;;;11.47;8.80;;;;;;;13.04;70.33;101625.59;5135258;27;20058;-40
2021/05/19 07:41:14;;;;;;;13.03;8.90;;;;;;;13.08;68.59;101624.91;5135348;27;20027;-40
2021/05/19 07:43:39;;;;;;;10.03;7.63;;;;;;;13.11;69.85;101627.13;5135948;27;20409;-39
2021/05/19 07:46:05;;;;;;;8.37;7.37;;;;;;;13.10;69.07;101624.66;5135913;27;20019;-40
2021/05/19 07:48:30;;;;;;;14.68;8.20;;;;;;;13.03;69.01;101627.47;5134983;27;20106;-40
2021/05/19 07:50:56;;;;;;;12.88;6.90;;;;;;;12.91;69.02;101633.88;5135227;27;20500;-40
2021/05/19 07:53:21;;;;;;;11.40;7.07;;;;;;;12.87;69.25;101628.06;5134973;27;20034;-39
2021/05/19 07:55:51;;;;;;;10.90;6.97;;;;;;;12.85;69.73;101624.75;5133889;27;20273;-40
2021/05/19 07:58:20;;;;;;;10.85;6.63;;;;;;;12.88;68.47;101635.16;5135369;27;20031;-40
2021/05/19 08:03:20;;;;;;;11.23;6.80;;;;;;;13.06;69.23;101632.44;5134788;27;20039;-40
2021/05/19 08:05:45;;;;;;;10.73;6.53;;;;;;;12.98;70.08;101627.31;5135261;27;20023;-40
2021/05/19 08:08:11;;;;;;;14.53;6.90;;;;;;;12.95;69.86;101638.63;5134665;27;20530;-40
2021/05/19 08:10:38;;;;;;;7.17;5.13;;;;;;;13.06;69.34;101635.13;5134985;27;20019;-39
2021/05/19 08:13:03;;;;;;;9.13;6.18;;;;;;;13.11;68.01;101632.56;5134577;27;20019;-39
2021/05/19 08:15:28;;;;;;;11.30;7.57;;;;;;;13.25;68.50;101622.41;5134956;27;20027;-40
2021/05/19 08:17:54;;;;;;;12.20;6.80;;;;;;;13.63;68.87;101638.38;5134468;27;20289;-40
2021/05/19 08:20:22;;;;;;;10.60;5.87;;;;;;;13.72;66.65;101629.91;5135097;27;20059;-39
2021/05/19 08:22:48;;;;;;;11.90;6.03;;;;;;;13.67;66.24;101632.47;5134495;27;20028;-40
2021/05/19 08:25:14;;;;;;;9.73;6.10;;;;;;;13.74;66.51;101633.19;5134967;27;20028;-40
2021/05/19 08:27:39;;;;;;;9.57;5.53;;;;;;;13.80;66.86;101638.50;5132576;27;20474;-39
2021/05/19 08:30:05;;;;;;;11.73;5.67;;;;;;;13.75;66.96;101635.66;5134643;27;20025;-39
2021/05/19 08:32:31;;;;;;;11.13;5.78;;;;;;;13.68;66.19;101628.69;5133972;27;20106;-39
2021/05/19 08:34:56;;;;;;;9.53;5.70;;;;;;;13.71;66.83;101630.94;5134614;27;20094;-39
2021/05/19 08:37:21;;;;;;;10.80;6.10;;;;;;;13.70;66.35;101630.09;5134202;27;20273;-39
2021/05/19 08:39:48;;;;;;;11.47;7.10;;;;;;;13.79;66.70;101631.44;5134367;27;20062;-39
2021/05/19 08:42:13;;;;;;;9.45;6.18;;;;;;;13.90;66.39;101633.34;5133882;27;20553;-39
2021/05/19 08:44:41;;;;;;;14.25;5.10;;;;;;;14.04;65.31;101627.69;5134450;27;20114;-39
2021/05/19 08:47:06;;;;;;;9.35;5.15;;;;;;;14.17;64.92;101624.75;5134327;27;20030;-39
2021/05/19 08:49:32;;;;;;;10.23;5.23;;;;;;;14.09;64.64;101622.38;5134244;27;20506;-39
2021/05/19 08:51:57;;;;;;;7.82;4.78;;;;;;;14.03;64.81;101621.41;5134086;27;20031;-39
2021/05/19 08:54:24;;;;;;;9.17;5.00;;;;;;;13.98;65.20;101618.59;5134082;27;20387;-39
2021/05/19 08:56:50;;;;;;;7.40;4.55;;;;;;;13.87;65.04;101630.28;5134018;27;20035;-39
2021/05/19 08:59:17;;;;;;;8.60;4.82;;;;;;;13.68;66.43;101618.66;5134027;27;20055;-39
2021/05/19 09:01:44;;;;;;;10.27;4.25;;;;;;;13.56;66.88;101615.06;5133686;27;20034;-39
2021/05/19 09:04:19;;;;;;;7.72;4.70;;;;;;;13.55;67.24;101619.66;5134281;27;20467;-39
2021/05/19 09:06:52;;;;;;;8.30;4.30;;;;;;;13.38;67.15;101618.69;5133902;27;20116;-40
2021/05/19 09:09:33;;;;;;;10.52;4.95;;;;;;;13.48;66.31;101608.09;5134481;27;20042;-39
2021/05/19 09:12:08;;;;;;;8.77;4.60;;;;;;;13.91;66.61;101612.44;5134437;27;20027;-39
2021/05/19 09:14:35;;;;;;;8.32;4.32;;;;;;;14.32;65.80;101602.50;5134107;27;20027;-39
2021/05/19 09:17:19;;;;;;;10.00;4.38;;;;;;;14.73;63.35;101603.44;5133517;27;20043;-39
2021/05/19 09:19:45;;;;;;;10.70;4.70;;;;;;;14.78;63.02;101615.25;5133611;27;20079;-39
2021/05/19 09:22:18;;;;;;;9.02;4.13;;;;;;;14.59;63.82;101614.59;5133949;27;20439;-40
2021/05/19 09:24:44;;;;;;;8.05;3.40;;;;;;;14.50;63.37;101604.31;5133991;27;20039;-39
2021/05/19 09:27:09;;;;;;;10.13;4.53;;;;;;;14.24;64.43;101608.31;5133563;27;20015;-39
2021/05/19 09:29:37;;;;;;;8.88;3.97;;;;;;;14.05;64.52;101607.56;5134041;27;20568;-39
2021/05/19 09:32:04;;;;;;;11.00;3.72;;;;;;;13.99;66.20;101605.81;5133681;27;20561;-39
2021/05/19 09:34:32;;;;;;;9.10;3.60;;;;;;;13.82;65.67;101603.78;5134243;27;20391;-39
2021/05/19 09:37:23;;;;;;;10.00;4.00;;;;;;;13.73;65.93;101607.06;5133627;27;20031;-39
2021/05/19 09:39:57;;;;;;;6.13;3.60;;;;;;;13.68;65.62;101604.22;5138341;27;20030;-39
2021/05/19 09:42:41;;;;;;;10.23;4.22;;;;;;;13.63;66.04;101605.75;5137184;27;20143;-40
2021/05/19 09:45:41;;;;;;;8.32;4.00;;;;;;;13.62;67.38;101606.00;5137585;27;20042;-39
2021/05/19 09:48:06;;;;;;;7.40;4.20;;;;;;;13.70;67.53;101594.78;5137668;27;20430;-39
2021/05/19 09:50:35;;;;;;;10.90;4.10;;;;;;;14.12;66.44;101595.53;5137374;27;20061;-39
2021/05/19 09:53:04;;;;;;;6.35;3.65;;;;;;;14.25;65.44;101586.31;5137212;27;20459;-39
2021/05/19 09:55:29;;;;;;;8.02;4.15;;;;;;;14.17;62.69;101584.78;5137293;27;20060;-39
2021/05/19 09:57:55;;;;;;;5.30;3.40;;;;;;;14.24;63.76;101581.91;5137800;27;20019;-39
2021/05/19 10:00:26;;;;;;;6.05;3.40;;;;;;;14.16;62.87;101576.84;5137259;27;20023;-39
2021/05/19 10:02:52;;;;;;;6.47;3.85;;;;;;;14.36;62.04;101573.78;5137385;27;20023;-39
2021/05/19 10:05:22;;;;;;;10.15;4.35;;;;;;;14.63;61.95;101580.38;5137891;27;20370;-39
2021/05/19 10:07:48;;;;;;;9.80;5.95;;;;;;;14.73;60.56;101585.19;5137062;27;20019;-39
2021/05/19 10:10:15;;;;;;;10.75;6.18;;;;;;;14.70;60.45;101593.03;5137050;27;20023;-39
2021/05/19 10:12:40;;;;;;;;;;;;;;;14.77;59.80;101599.97;5137355;27;20031;-39
2021/05/19 10:15:18;;;;;;;10.10;6.45;;;;;;;14.67;61.36;101589.72;5137666;27;19915;-39
2021/05/19 10:17:48;;;;;;;11.48;7.75;;;;;;;14.69;65.23;101592.22;5137310;27;20030;-39
2021/05/19 10:20:17;;;;;;;12.05;7.63;;;;;;;14.76;64.71;101586.63;5137407;27;20026;-39
2021/05/19 10:22:48;;;;;;;12.38;7.60;;;;;;;14.96;63.94;101597.91;5137149;27;20023;-39
2021/05/19 10:25:39;;;;;;;10.70;7.63;;;;;;;15.05;62.15;101601.09;5136450;27;20527;-39
2021/05/19 10:28:08;;;;;;;9.13;5.93;;;;;;;15.02;59.66;101605.13;5137369;27;20023;-39
2021/05/19 10:30:47;;;;;;;5.68;3.60;;;;;;;15.10;58.58;101606.66;5136895;27;20461;-39
2021/05/19 10:33:39;;;;;;;6.45;3.00;;;;;;;15.39;58.77;101621.09;5136555;27;20035;-40
2021/05/19 10:36:25;;;;;;;4.78;2.50;;;;;;;15.81;58.23;101613.44;5135997;27;20384;-39
2021/05/19 10:39:09;;;;;;;3.65;2.60;;;;;;;15.91;56.59;101610.06;5128626;27;20406;-39
2021/05/19 10:41:46;;;;;;;4.10;3.13;;;;;;;15.94;55.68;101615.00;5136573;27;20577;-39
2021/05/19 10:44:13;;;;;;;2.92;2.60;;;;;;;16.02;55.87;101608.31;5136563;27;20107;-39
2021/05/19 10:47:14;;;;;;;5.97;3.35;;;;;;;16.12;56.34;101606.56;5136376;27;20037;-39
2021/05/19 10:49:55;;;;;;;4.72;3.47;;;;;;;16.04;57.23;101614.31;5136197;27;20030;-39
2021/05/19 10:52:46;;;;;;;5.47;3.80;;;;;;;15.75;57.15;101616.31;5136483;27;20031;-39
2021/05/19 10:58:03;;;;;;;9.97;4.13;;;;;;;15.25;58.49;101625.19;5136381;27;20127;-39
2021/05/19 11:00:31;;;;;;;10.40;3.90;;;;;;;15.04;59.22;101651.19;5136586;27;20027;-39
2021/05/19 11:03:05;;;;;;;4.43;2.92;;;;;;;14.73;59.06;101663.31;5135887;27;20115;-39
2021/05/19 11:05:32;;;;;;;5.13;2.33;;;;;;;14.34;60.26;101677.38;5136512;27;20098;-39
2021/05/19 11:08:07;;;;;;;3.35;2.15;;;;;;;13.95;63.43;101695.16;5135820;27;20027;-39
2021/05/19 11:10:33;;;;;;;4.65;1.65;;;;;;;13.55;64.95;101701.19;5136093;27;20027;-39
2021/05/19 11:12:58;;;;;;;;;;;;;;;13.57;64.87;101703.69;5136166;27;20031;-39
2021/05/19 11:21:05;;;;;;;2.85;1.92;;;;;;;12.36;71.38;101694.34;5092658;28;20093;-39
2021/05/19 11:23:31;;;;;;;2.97;1.73;;;;;;;12.25;72.32;101695.06;5092120;28;20044;-39
2021/05/19 11:26:09;;;;;;;2.83;2.03;;;;;;;12.02;72.32;101701.94;5092482;28;20111;-39
2021/05/19 11:28:35;;;;;;;2.55;1.50;;;;;;;11.86;73.67;101705.16;5092844;28;20030;-39
2021/05/19 11:31:11;;;;;;;3.92;1.90;;;;;;;11.87;73.19;101704.13;5092301;28;20434;-39
2021/05/19 11:34:07;;;;;;;2.90;1.40;;;;;;;11.87;73.21;101700.59;5092042;28;20028;-39
2021/05/19 11:36:34;;;;;;;3.22;1.70;;;;;;;11.68;71.98;101702.31;5031808;28;20037;-39
2021/05/19 11:39:03;;;;;;;2.35;1.15;;;;;;;11.79;74.30;101697.03;5031906;28;20029;-39
2021/05/19 11:41:28;;;;;;;2.88;1.50;;;;;;;11.90;74.17;101702.84;5031807;28;20150;-39
2021/05/19 11:43:54;;;;;;;3.93;1.83;;;;;;;12.05;75.12;101696.06;5031589;28;20141;-39